Time;durP1;ratioP1;P1;durP2;ratioP2;P2;SDS_P1;SDS_P2;PMS_P1;PMS_P2;Temp;Humidity;BMP_temperature;BMP_pressure;BME280_temperature;BME280_humidity;BME280_pressure;Samples;Min_cycle;Max_cycle;Signal;HPM_P1;HPM_P2
2022/04/11 00:01:27;;;;;;;12.93;6.78;;;;;;;1.87;86.32;102049.28;5090793;28;20028;-79
2022/04/11 00:03:53;;;;;;;11.98;6.32;;;;;;;1.84;86.51;102041.53;5090571;28;20508;-78
2022/04/11 00:06:18;;;;;;;15.65;6.70;;;;;;;1.86;86.87;102044.94;5090687;28;20039;-80
2022/04/11 00:08:43;;;;;;;12.30;6.88;;;;;;;1.86;87.14;102043.16;5090441;28;20035;-80
2022/04/11 00:11:09;;;;;;;11.13;6.95;;;;;;;1.88;87.56;102043.09;5091257;28;20473;-80
2022/04/11 00:13:34;;;;;;;10.02;6.70;;;;;;;1.88;87.89;102037.84;5091368;28;20386;-80
2022/04/11 00:15:59;;;;;;;8.10;6.20;;;;;;;1.89;88.09;102040.44;5072434;28;20066;-79
2022/04/11 00:18:25;;;;;;;10.48;6.93;;;;;;;1.89;88.43;102040.44;5072430;28;20036;-79
2022/04/11 00:20:51;;;;;;;11.90;7.32;;;;;;;1.89;88.24;102034.31;5090351;28;20353;-79
2022/04/11 00:23:16;;;;;;;11.55;6.82;;;;;;;1.90;88.24;102043.94;5071642;28;20033;-79
2022/04/11 00:25:42;;;;;;;13.40;6.95;;;;;;;1.90;88.16;102043.94;5072349;28;20039;-79
2022/04/11 00:28:08;;;;;;;14.00;6.43;;;;;;;1.89;87.99;102036.94;5090364;28;20043;-78
2022/04/11 00:30:34;;;;;;;11.10;7.28;;;;;;;1.88;87.85;102029.97;5072329;28;20028;-80
2022/04/11 00:32:59;;;;;;;9.30;6.20;;;;;;;1.87;87.68;102037.00;5071665;28;20039;-80
2022/04/11 00:35:25;;;;;;;11.75;7.15;;;;;;;1.85;87.74;102044.09;5072022;28;20487;-79
2022/04/11 00:37:50;;;;;;;11.05;7.15;;;;;;;1.85;87.78;102045.84;5090624;28;20032;-79
2022/04/11 00:40:15;;;;;;;9.00;6.50;;;;;;;1.83;87.38;102042.41;5071444;28;20032;-80
2022/04/11 00:42:41;;;;;;;11.85;6.75;;;;;;;1.81;87.40;102041.59;5090508;28;20056;-79
2022/04/11 00:45:07;;;;;;;12.38;6.50;;;;;;;1.79;87.45;102036.41;5090644;28;20024;-80
2022/04/11 00:47:33;;;;;;;10.73;6.65;;;;;;;1.76;87.38;102032.13;5090414;28;20028;-80
2022/04/11 00:50:06;;;;;;;12.70;7.15;;;;;;;1.74;87.46;102026.06;5090387;28;20028;-80
2022/04/11 00:52:35;;;;;;;11.07;6.75;;;;;;;1.73;87.36;102029.63;5072028;28;20078;-80
2022/04/11 00:55:01;;;;;;;9.13;6.20;;;;;;;1.72;87.52;102033.16;5071748;28;20028;-81
2022/04/11 00:57:27;;;;;;;12.32;6.68;;;;;;;1.71;87.65;102030.56;5090217;28;20032;-80
2022/04/11 00:59:53;;;;;;;10.25;5.72;;;;;;;1.71;88.11;102030.56;5071847;28;20069;-80
2022/04/11 01:02:18;;;;;;;10.15;7.03;;;;;;;1.70;88.15;102023.59;5092981;28;20131;-80
2022/04/11 01:04:44;;;;;;;8.65;5.82;;;;;;;1.70;87.92;102024.47;5093307;28;20024;-81
2022/04/11 01:07:09;;;;;;;9.40;5.93;;;;;;;1.69;87.86;102020.13;5093205;28;20028;-80
2022/04/11 01:09:35;;;;;;;8.52;6.07;;;;;;;1.71;87.91;102022.69;5058955;28;20072;-80
2022/04/11 01:12:01;;;;;;;9.23;6.03;;;;;;;1.71;87.85;102020.06;5093261;28;20039;-80
2022/04/11 01:14:27;;;;;;;10.63;5.65;;;;;;;1.68;87.99;102013.16;5093409;28;20441;-80
2022/04/11 01:16:53;;;;;;;10.10;6.25;;;;;;;1.68;87.92;102009.69;5074992;28;20071;-81
2022/04/11 01:19:19;;;;;;;12.43;6.05;;;;;;;1.66;88.13;102011.53;5093167;28;20453;-80
2022/04/11 01:21:45;;;;;;;11.80;6.00;;;;;;;1.67;87.99;102015.84;5093367;28;20035;-80
2022/04/11 01:24:12;;;;;;;9.05;5.63;;;;;;;1.65;87.77;102010.66;5093493;28;20024;-80
2022/04/11 01:26:37;;;;;;;10.13;6.00;;;;;;;1.65;87.74;102012.41;5093245;28;20151;-80
2022/04/11 01:29:06;;;;;;;7.80;5.25;;;;;;;1.63;87.55;102007.22;5074702;28;20115;-80
2022/04/11 01:31:31;;;;;;;7.40;5.28;;;;;;;1.61;87.40;102003.78;5093484;28;20119;-79
2022/04/11 01:33:57;;;;;;;10.23;5.80;;;;;;;1.59;87.36;102003.00;5093219;28;20079;-80
2022/04/11 01:36:23;;;;;;;11.15;5.40;;;;;;;1.57;87.32;101999.56;5075076;28;20450;-80
2022/04/11 01:38:48;;;;;;;10.55;6.35;;;;;;;1.53;87.17;101998.81;5093053;28;20085;-80
2022/04/11 01:41:14;;;;;;;9.13;5.78;;;;;;;1.50;87.53;101998.06;5074466;28;20043;-79
2022/04/11 01:43:39;;;;;;;8.82;5.60;;;;;;;1.47;87.51;102000.78;5074416;28;20063;-79
2022/04/11 01:46:04;;;;;;;10.57;5.90;;;;;;;1.43;87.38;101993.94;5074625;28;20119;-79
2022/04/11 01:48:30;;;;;;;11.00;6.03;;;;;;;1.38;87.38;101994.09;5092813;28;20043;-79
2022/04/11 01:50:55;;;;;;;7.53;5.35;;;;;;;1.31;87.53;101993.41;5074797;28;20101;-80
2022/04/11 01:53:21;;;;;;;11.88;5.95;;;;;;;1.26;87.41;101994.50;5092901;28;20024;-80
2022/04/11 01:55:47;;;;;;;7.30;5.40;;;;;;;1.21;87.57;101992.03;5092183;28;20213;-80
2022/04/11 01:58:13;;;;;;;9.02;5.30;;;;;;;1.15;87.62;101995.72;5092276;28;20100;-79
2022/04/11 02:00:39;;;;;;;8.02;5.28;;;;;;;1.08;87.90;101988.09;5092719;28;20063;-79
2022/04/11 02:03:07;;;;;;;10.65;5.18;;;;;;;1.01;87.65;101995.28;5092914;28;20036;-79
2022/04/11 02:05:32;;;;;;;7.50;5.00;;;;;;;0.95;87.53;101995.47;5092940;28;20046;-79
2022/04/11 02:07:58;;;;;;;7.40;4.55;;;;;;;0.88;87.60;101985.19;5092339;28;20032;-80
2022/04/11 02:10:24;;;;;;;8.55;4.57;;;;;;;0.82;87.75;101987.13;5092391;28;20443;-80
2022/04/11 02:12:50;;;;;;;8.52;5.20;;;;;;;0.78;87.93;101993.41;5091753;28;20020;-79
2022/04/11 02:15:17;;;;;;;8.43;5.05;;;;;;;0.72;88.26;101983.09;5073690;28;20399;-80
2022/04/11 02:17:43;;;;;;;8.60;4.93;;;;;;;0.66;87.44;101994.63;5092200;28;20043;-80
2022/04/11 02:20:11;;;;;;;6.68;4.47;;;;;;;0.62;88.04;101993.00;5091901;28;20027;-79
2022/04/11 02:22:53;;;;;;;9.55;5.75;;;;;;;0.57;87.83;101989.66;5074365;28;20032;-80
2022/04/11 02:25:19;;;;;;;;;;;;;;;0.53;88.46;101989.75;5092571;28;20103;-79
2022/04/11 02:27:45;;;;;;;5.65;5.00;;;;;;;0.49;88.69;101987.28;5091971;28;19930;-79
2022/04/11 02:30:12;;;;;;;8.98;5.60;;;;;;;0.47;88.55;101989.94;5073826;28;20028;-79
2022/04/11 02:32:37;;;;;;;9.38;4.97;;;;;;;0.44;88.63;101984.78;5091989;28;20043;-80
2022/04/11 02:35:03;;;;;;;7.78;5.53;;;;;;;0.45;88.50;101990.88;5073863;28;20416;-80
2022/04/11 02:37:29;;;;;;;7.20;4.68;;;;;;;0.44;89.04;101987.41;5073859;28;20028;-80
2022/04/11 02:39:55;;;;;;;8.10;5.25;;;;;;;0.44;89.13;101989.19;5073718;28;20351;-80
2022/04/11 02:42:22;;;;;;;8.77;5.55;;;;;;;0.43;89.62;101990.06;5091770;28;20061;-80
2022/04/11 02:44:48;;;;;;;9.15;5.00;;;;;;;0.44;89.84;101990.03;5073679;28;20034;-80
2022/04/11 02:47:13;;;;;;;9.38;5.20;;;;;;;0.44;90.17;101986.56;5091881;28;20032;-80
2022/04/11 02:49:38;;;;;;;7.13;4.88;;;;;;;0.44;90.38;101979.56;5091973;28;20032;-80
2022/04/11 02:52:04;;;;;;;9.20;5.55;;;;;;;0.44;90.26;101989.19;5091749;28;20070;-80
2022/04/11 02:54:30;;;;;;;10.82;5.72;;;;;;;0.45;90.44;101985.63;5091755;28;20072;-80
2022/04/11 02:56:55;;;;;;;9.23;6.25;;;;;;;0.44;90.66;101978.72;5091373;28;20036;-80
2022/04/11 02:59:20;;;;;;;9.10;6.55;;;;;;;0.44;91.25;101981.31;5056465;28;20036;-80
2022/04/11 03:01:46;;;;;;;9.02;5.40;;;;;;;0.42;91.04;101976.13;5091265;28;20028;-80
2022/04/11 03:04:11;;;;;;;6.82;5.07;;;;;;;0.39;90.93;101976.22;5091351;28;20435;-80
2022/04/11 03:06:37;;;;;;;8.32;5.68;;;;;;;0.38;90.85;101973.66;5091146;28;20114;-80
2022/04/11 03:09:02;;;;;;;8.43;5.10;;;;;;;0.35;91.25;101970.19;5092132;28;20039;-80
2022/04/11 03:11:27;;;;;;;9.82;5.93;;;;;;;0.32;91.06;101975.53;5091081;28;20066;-80
2022/04/11 03:13:53;;;;;;;6.97;5.05;;;;;;;0.29;91.03;101966.94;5091188;28;20036;-80
2022/04/11 03:16:18;;;;;;;8.32;5.20;;;;;;;0.25;90.70;101967.91;5090552;28;20062;-80
2022/04/11 03:18:43;;;;;;;8.02;5.47;;;;;;;0.22;90.79;101968.00;5091051;28;20028;-79
2022/04/11 03:21:09;;;;;;;8.80;5.53;;;;;;;0.17;90.52;101965.53;5072641;28;20036;-79
2022/04/11 03:23:34;;;;;;;8.68;5.35;;;;;;;0.11;90.40;101958.69;5071776;28;20123;-79
2022/04/11 03:26:00;;;;;;;8.52;5.85;;;;;;;0.11;90.30;101970.94;5091120;28;20036;-79
2022/04/11 03:28:25;;;;;;;8.57;5.82;;;;;;;0.08;90.30;101960.56;5072672;28;20099;-79
2022/04/11 03:30:50;;;;;;;9.65;5.50;;;;;;;0.06;90.46;101960.59;5090850;28;20036;-80
2022/04/11 03:33:16;;;;;;;7.18;4.85;;;;;;;0.05;90.94;101955.41;5090591;28;20115;-80
2022/04/11 03:35:41;;;;;;;9.45;5.72;;;;;;;0.03;91.16;101958.06;5072262;28;20146;-80
2022/04/11 03:38:07;;;;;;;9.73;5.97;;;;;;;0.03;91.42;101957.19;5090787;28;20039;-80
2022/04/11 03:40:32;;;;;;;9.85;5.40;;;;;;;0.04;91.77;101954.53;5090698;28;20494;-79
2022/04/11 03:42:58;;;;;;;10.90;5.78;;;;;;;0.04;91.86;101953.69;5090614;28;20052;-80
2022/04/11 03:45:23;;;;;;;8.00;5.57;;;;;;;0.06;92.37;101957.97;5090520;28;20036;-80
2022/04/11 03:47:49;;;;;;;8.68;5.50;;;;;;;0.07;92.52;101953.59;5073250;28;20498;-79
2022/04/11 03:50:14;;;;;;;7.82;5.47;;;;;;;0.09;92.28;101957.00;5094052;28;20100;-80
2022/04/11 03:52:40;;;;;;;10.43;5.82;;;;;;;0.10;92.27;101948.28;5094196;28;20121;-79
2022/04/11 03:55:05;;;;;;;9.07;5.57;;;;;;;0.11;92.44;101952.63;5057092;28;20424;-79
2022/04/11 03:57:32;;;;;;;8.85;5.57;;;;;;;0.10;92.56;101954.34;5090716;28;20039;-80
2022/04/11 03:59:57;;;;;;;10.40;5.55;;;;;;;0.09;92.30;101947.44;5090695;28;20028;-80
2022/04/11 04:02:22;;;;;;;9.13;5.50;;;;;;;0.08;92.26;101937.84;5090383;28;20025;-79
2022/04/11 04:04:48;;;;;;;10.63;6.50;;;;;;;0.09;92.41;101943.94;5072743;28;20481;-80
2022/04/11 04:07:13;;;;;;;9.45;6.03;;;;;;;0.10;92.54;101948.28;5090420;28;20471;-80
2022/04/11 04:09:39;;;;;;;8.15;5.57;;;;;;;0.11;92.68;101942.16;5071897;28;20109;-80
2022/04/11 04:12:04;;;;;;;10.55;5.65;;;;;;;0.15;93.02;101943.75;5071726;28;20036;-80
2022/04/11 04:14:30;;;;;;;10.52;6.20;;;;;;;0.20;93.01;101944.50;5090764;28;20032;-80
2022/04/11 04:16:56;;;;;;;10.07;6.60;;;;;;;0.26;93.32;101941.69;5090375;28;20421;-80
2022/04/11 04:19:21;;;;;;;11.25;5.95;;;;;;;0.32;93.47;101944.13;5090175;28;20413;-79
2022/04/11 04:21:47;;;;;;;11.75;6.47;;;;;;;0.38;93.71;101943.09;5071957;28;20059;-79
2022/04/11 04:24:12;;;;;;;11.75;5.93;;;;;;;0.41;93.67;101936.91;5072068;28;20032;-80
2022/04/11 04:26:38;;;;;;;9.13;6.03;;;;;;;0.41;93.67;101935.13;5089858;28;20076;-79
2022/04/11 04:29:03;;;;;;;9.77;6.13;;;;;;;0.38;93.19;101932.59;5090531;28;20043;-79
2022/04/11 04:31:30;;;;;;;9.57;6.47;;;;;;;0.33;93.22;101927.50;5071802;28;20094;-79
2022/04/11 04:33:55;;;;;;;12.48;7.80;;;;;;;0.28;93.07;101929.41;5090248;28;20461;-79
2022/04/11 04:36:20;;;;;;;9.82;6.35;;;;;;;0.23;92.71;101931.31;5092952;28;20031;-79
2022/04/11 04:38:46;;;;;;;12.25;7.60;;;;;;;0.19;92.62;101929.69;5094342;28;20036;-80
2022/04/11 04:41:11;;;;;;;11.23;7.63;;;;;;;0.13;92.61;101927.25;5075747;28;20141;-80
2022/04/11 04:43:37;;;;;;;11.85;7.72;;;;;;;0.07;92.50;101923.03;5094070;28;20052;-80
2022/04/11 04:46:02;;;;;;;10.10;6.78;;;;;;;-0.01;92.29;101923.25;5094343;28;20220;-80
2022/04/11 04:48:27;;;;;;;9.80;6.88;;;;;;;-0.05;92.24;101929.47;5094009;28;20048;-80
2022/04/11 04:50:54;;;;;;;9.18;7.25;;;;;;;-0.09;92.28;101922.66;5094126;28;20107;-80
2022/04/11 04:53:19;;;;;;;11.50;7.40;;;;;;;-0.12;92.09;101930.59;5093614;28;20070;-80
2022/04/11 04:55:44;;;;;;;16.85;10.73;;;;;;;-0.16;92.21;101931.56;5093786;28;20063;-79
2022/04/11 04:58:10;;;;;;;15.57;10.77;;;;;;;-0.18;92.06;101930.72;5075843;28;20032;-79
2022/04/11 05:00:35;;;;;;;17.00;11.50;;;;;;;-0.21;91.88;101930.81;5075411;28;20100;-80
2022/04/11 05:03:00;;;;;;;13.93;9.85;;;;;;;-0.22;92.24;101936.97;5075477;28;20063;-80
2022/04/11 05:05:26;;;;;;;13.63;8.98;;;;;;;-0.25;91.96;101931.81;5093377;28;20128;-80
2022/04/11 05:07:51;;;;;;;13.77;8.02;;;;;;;-0.25;91.81;101927.44;5093689;28;20024;-79
2022/04/11 05:10:17;;;;;;;15.50;8.75;;;;;;;-0.25;92.40;101927.44;5093736;28;20510;-80
2022/04/11 05:12:44;;;;;;;16.50;8.75;;;;;;;-0.26;92.59;101925.72;5075282;28;20123;-80
2022/04/11 05:15:10;;;;;;;11.50;7.95;;;;;;;-0.24;92.80;101925.69;5093711;28;20042;-80
2022/04/11 05:17:36;;;;;;;11.27;7.93;;;;;;;-0.23;93.20;101930.84;5093710;28;20169;-81
2022/04/11 05:20:03;;;;;;;10.30;7.93;;;;;;;-0.21;93.29;101929.09;5093494;28;20139;-81
2022/04/11 05:22:28;;;;;;;14.80;8.65;;;;;;;-0.17;93.20;101935.06;5093690;28;20119;-80
2022/04/11 05:24:54;;;;;;;19.38;11.63;;;;;;;-0.12;93.56;101935.81;5093588;28;20133;-80
2022/04/11 05:27:19;;;;;;;22.45;12.70;;;;;;;-0.06;93.53;101937.38;5075463;28;20071;-81
2022/04/11 05:29:45;;;;;;;17.77;10.95;;;;;;;-0.01;94.08;101932.88;5093300;28;20043;-80
2022/04/11 05:32:10;;;;;;;13.75;10.05;;;;;;;0.06;94.14;101936.16;5075067;28;20550;-80
2022/04/11 05:34:36;;;;;;;20.35;11.00;;;;;;;0.13;94.69;101932.47;5093080;28;20032;-81
2022/04/11 05:37:01;;;;;;;14.70;10.07;;;;;;;0.20;94.77;101938.41;5093626;28;20066;-81
2022/04/11 05:39:26;;;;;;;15.13;10.20;;;;;;;0.28;94.94;101934.63;5093136;28;20034;-80
2022/04/11 05:41:52;;;;;;;14.38;10.02;;;;;;;0.37;95.27;101936.13;5075133;28;20119;-81
2022/04/11 05:44:17;;;;;;;16.15;10.75;;;;;;;0.49;95.71;101934.88;5093766;28;20092;-81
2022/04/11 05:46:43;;;;;;;15.20;10.60;;;;;;;0.59;95.76;101935.47;5092963;28;20071;-80
2022/04/11 05:49:08;;;;;;;15.18;10.48;;;;;;;0.72;96.21;101934.19;5093609;28;20078;-79
2022/04/11 05:51:34;;;;;;;17.55;11.18;;;;;;;0.85;96.51;101934.63;5074648;28;20127;-81
2022/04/11 05:53:59;;;;;;;17.33;11.15;;;;;;;1.01;96.75;101937.63;5074605;28;20032;-81
2022/04/11 05:56:24;;;;;;;18.92;11.70;;;;;;;1.17;96.92;101930.97;5074887;28;20408;-82
2022/04/11 05:58:50;;;;;;;17.95;12.32;;;;;;;1.33;97.04;101936.53;5093978;28;20075;-80
2022/04/11 06:01:15;;;;;;;17.25;13.23;;;;;;;1.49;97.03;101934.22;5095033;28;20024;-81
2022/04/11 06:03:40;;;;;;;21.10;14.27;;;;;;;1.67;97.25;101935.38;5075623;28;20408;-81
2022/04/11 06:06:06;;;;;;;18.05;13.27;;;;;;;1.86;97.15;101939.94;5075679;28;20036;-80
2022/04/11 06:08:31;;;;;;;21.70;13.02;;;;;;;2.04;97.05;101930.53;5092982;28;20032;-81
2022/04/11 06:10:57;;;;;;;20.17;13.32;;;;;;;2.21;97.04;101928.13;5092547;28;20028;-81
2022/04/11 06:13:22;;;;;;;18.38;12.90;;;;;;;2.41;96.59;101935.25;5092765;28;20040;-81
2022/04/11 06:15:47;;;;;;;22.38;12.55;;;;;;;2.60;96.06;101934.53;5092347;28;20105;-81
2022/04/11 06:18:13;;;;;;;15.60;11.95;;;;;;;2.77;94.79;101934.69;5074270;28;20039;-81
2022/04/11 06:20:38;;;;;;;21.17;11.40;;;;;;;2.94;92.69;101938.41;5093042;28;20036;-81
2022/04/11 06:23:04;;;;;;;17.40;12.02;;;;;;;3.10;89.58;101934.22;5073835;28;20491;-81
2022/04/11 06:25:29;;;;;;;14.48;10.98;;;;;;;3.26;88.71;101929.19;5074214;28;20176;-82
2022/04/11 06:27:54;;;;;;;15.13;10.85;;;;;;;3.39;87.86;101933.94;5073566;28;20371;-81
2022/04/11 06:30:20;;;;;;;18.30;10.98;;;;;;;3.46;86.71;101931.00;5074075;28;20417;-81
2022/04/11 06:32:45;;;;;;;14.13;10.98;;;;;;;3.51;85.77;101936.91;5073743;28;20411;-80
2022/04/11 06:35:10;;;;;;;13.25;10.95;;;;;;;3.54;84.88;101925.38;5073778;28;20028;-80
2022/04/11 06:37:36;;;;;;;14.77;11.30;;;;;;;3.59;84.80;101931.28;5092095;28;20036;-77
2022/04/11 06:40:03;;;;;;;15.05;11.13;;;;;;;3.63;84.76;101930.25;5091874;28;20491;-80
2022/04/11 06:42:28;;;;;;;18.15;11.98;;;;;;;3.69;84.99;101932.59;5091577;28;20349;-79
2022/04/11 06:44:54;;;;;;;16.08;11.45;;;;;;;3.75;84.94;101930.59;5073192;28;20039;-78
2022/04/11 06:47:21;;;;;;;18.83;11.57;;;;;;;3.82;85.42;101930.28;5056492;28;20392;-77
2022/04/11 06:49:47;;;;;;;22.75;11.15;;;;;;;3.93;85.36;101923.69;5090706;28;20345;-78
2022/04/11 06:52:13;;;;;;;15.82;11.77;;;;;;;4.04;85.33;101918.78;5091248;28;20039;-77
2022/04/11 06:54:39;;;;;;;15.90;11.70;;;;;;;4.19;84.88;101927.75;5091044;28;20036;-78
2022/04/11 06:57:05;;;;;;;17.38;11.88;;;;;;;4.34;84.49;101936.72;5091512;28;20501;-82
2022/04/11 06:59:30;;;;;;;16.98;12.52;;;;;;;4.49;84.13;101929.88;5091151;28;20055;-82
2022/04/11 07:01:56;;;;;;;18.95;12.45;;;;;;;4.67;83.61;101931.66;5090863;28;20114;-79
2022/04/11 07:04:22;;;;;;;14.75;11.32;;;;;;;4.85;82.82;101927.25;5091080;28;20032;-80
2022/04/11 07:06:48;;;;;;;14.05;11.43;;;;;;;5.04;81.60;101921.06;5073144;28;20040;-81
2022/04/11 07:09:14;;;;;;;14.20;10.88;;;;;;;5.26;81.31;101918.19;5094061;28;20352;-81
2022/04/11 07:11:39;;;;;;;20.55;12.32;;;;;;;5.47;81.20;101916.22;5073538;28;20035;-81
2022/04/11 07:14:06;;;;;;;22.55;11.63;;;;;;;5.70;81.50;101917.66;5092122;28;20111;-80
2022/04/11 07:16:31;;;;;;;16.92;11.07;;;;;;;5.91;78.96;101926.25;5073520;28;20080;-79
2022/04/11 07:18:57;;;;;;;17.30;10.82;;;;;;;6.08;78.33;101916.59;5092003;28;20059;-80
2022/04/11 07:21:22;;;;;;;15.32;12.10;;;;;;;6.26;76.74;101909.44;5056777;28;20112;-84
2022/04/11 07:23:48;;;;;;;13.18;11.05;;;;;;;6.50;76.44;101917.78;5073101;28;20104;-82
2022/04/11 07:26:13;;;;;;;14.32;10.18;;;;;;;6.69;75.25;101918.44;5091120;28;20465;-80
2022/04/11 07:28:39;;;;;;;17.50;10.75;;;;;;;6.87;72.56;101913.06;5074347;28;20043;-81
2022/04/11 07:31:05;;;;;;;18.05;10.77;;;;;;;7.02;73.01;101904.22;5073183;28;20036;-78
2022/04/11 07:33:30;;;;;;;18.85;10.70;;;;;;;7.17;72.00;101912.19;5072433;28;20055;-82
2022/04/11 07:35:55;;;;;;;22.83;10.57;;;;;;;7.31;72.12;101904.28;5073733;28;20105;-82
2022/04/11 07:38:21;;;;;;;13.88;10.10;;;;;;;7.48;71.77;101900.63;5044212;28;20233;-83
2022/04/11 07:40:47;;;;;;;18.65;10.82;;;;;;;7.63;69.56;101905.91;5059798;28;20040;-83
2022/04/11 07:43:14;;;;;;;15.48;10.73;;;;;;;7.79;69.44;101897.88;5092266;28;20056;-82
2022/04/11 07:45:40;;;;;;;16.40;11.57;;;;;;;7.91;68.47;101889.16;5056805;28;20039;-82
2022/04/11 07:48:06;;;;;;;18.13;9.98;;;;;;;8.00;66.99;101885.97;5073412;28;20032;-81
2022/04/11 07:50:31;;;;;;;15.88;10.02;;;;;;;8.23;68.84;101889.78;5090803;28;20104;-76
2022/04/11 07:52:57;;;;;;;15.38;10.20;;;;;;;8.38;66.63;101881.81;5090700;28;20036;-79
2022/04/11 07:55:24;;;;;;;23.00;10.48;;;;;;;8.47;66.44;101876.78;5056115;28;20040;-82
2022/04/11 07:57:50;;;;;;;13.65;9.82;;;;;;;8.69;65.84;101874.50;5073177;28;20403;-82
2022/04/11 08:00:15;;;;;;;15.23;9.77;;;;;;;8.92;64.23;101880.94;5072406;28;20024;-81
2022/04/11 08:02:41;;;;;;;13.85;9.75;;;;;;;9.07;62.73;101871.09;5090720;28;20043;-81
2022/04/11 08:05:07;;;;;;;18.33;9.90;;;;;;;9.45;61.64;101875.56;5090685;28;20024;-81
2022/04/11 08:07:33;;;;;;;16.25;9.63;;;;;;;9.64;60.34;101877.81;5090909;28;20039;-80
2022/04/11 08:10:00;;;;;;;19.13;9.05;;;;;;;10.19;58.89;101870.38;5073149;28;20039;-81
2022/04/11 08:12:25;;;;;;;19.80;9.48;;;;;;;10.70;57.35;101864.00;5076566;28;20044;-81
2022/04/11 08:14:51;;;;;;;13.55;8.95;;;;;;;11.20;55.23;101863.81;5076390;28;20043;-81
2022/04/11 08:17:16;;;;;;;14.35;9.10;;;;;;;11.70;54.43;101874.13;5094901;28;20362;-81
2022/04/11 08:19:42;;;;;;;15.27;8.60;;;;;;;11.75;52.42;101863.97;5076257;28;20047;-82
2022/04/11 08:22:07;;;;;;;12.20;7.80;;;;;;;11.72;50.10;101866.84;5094596;28;20035;-79
2022/04/11 08:24:32;;;;;;;16.55;7.45;;;;;;;12.10;49.46;101865.66;5095140;28;20093;-81
2022/04/11 08:26:58;;;;;;;12.68;7.78;;;;;;;12.12;49.68;101864.56;5094315;28;20478;-81
2022/04/11 08:29:27;;;;;;;13.10;7.60;;;;;;;12.32;46.97;101862.09;5094169;28;20479;-82
2022/04/11 08:31:53;;;;;;;12.63;7.43;;;;;;;12.33;48.21;101858.44;5094362;28;20035;-83
2022/04/11 08:34:19;;;;;;;12.13;7.32;;;;;;;12.10;48.50;101858.50;5076857;28;20457;-81
2022/04/11 08:36:44;;;;;;;11.05;7.88;;;;;;;12.19;48.87;101856.91;5075299;28;20096;-83
2022/04/11 08:39:10;;;;;;;10.65;7.20;;;;;;;12.37;49.40;101867.88;5075393;28;20055;-78
2022/04/11 08:41:37;;;;;;;14.50;7.32;;;;;;;12.29;47.63;101865.84;5095185;28;20112;-82
2022/04/11 08:44:05;;;;;;;10.40;6.78;;;;;;;12.59;48.32;101863.47;5093891;28;20071;-80
2022/04/11 08:46:32;;;;;;;11.40;7.18;;;;;;;12.74;47.27;101864.84;5096823;28;20062;-80
2022/04/11 08:49:03;;;;;;;12.90;7.55;;;;;;;12.79;46.82;101859.94;5093357;28;20456;-79
2022/04/11 08:51:33;;;;;;;13.70;7.00;;;;;;;13.27;45.95;101860.41;5075031;28;20119;-78
2022/04/11 08:54:04;;;;;;;14.07;7.10;;;;;;;13.67;45.17;101857.00;5093693;28;20042;-79
2022/04/11 08:56:30;;;;;;;11.05;6.70;;;;;;;14.17;43.88;101850.81;5093671;28;20043;-79
2022/04/11 08:58:56;;;;;;;14.77;7.90;;;;;;;14.79;41.79;101844.28;5093192;28;20039;-79
2022/04/11 09:01:22;;;;;;;9.70;5.95;;;;;;;15.09;40.51;101841.53;5093469;28;20085;-77
2022/04/11 09:03:48;;;;;;;14.23;6.05;;;;;;;15.73;39.85;101836.38;5093573;28;20147;-80
2022/04/11 09:06:15;;;;;;;8.13;5.80;;;;;;;16.17;36.91;101840.09;5095611;28;20062;-84
2022/04/11 09:08:52;;;;;;;11.02;6.10;;;;;;;16.87;35.84;101836.75;5095765;28;20418;-84
2022/04/11 09:11:36;;;;;;;10.57;5.65;;;;;;;17.54;35.34;101833.47;5093514;28;20065;-80
2022/04/11 09:14:04;;;;;;;14.73;6.10;;;;;;;18.24;33.42;101834.22;5093683;28;20032;-79
2022/04/11 09:16:43;;;;;;;12.48;6.03;;;;;;;18.40;32.40;101828.00;5093907;28;20028;-83
2022/04/11 09:19:24;;;;;;;9.95;4.60;;;;;;;19.02;31.78;101835.63;5093649;28;20048;-83
2022/04/11 09:21:54;;;;;;;10.10;5.03;;;;;;;18.98;31.23;101821.63;5092200;28;20087;-85
2022/04/11 09:24:22;;;;;;;8.80;4.97;;;;;;;19.15;31.09;101824.28;5074933;28;20464;-82
2022/04/11 09:26:50;;;;;;;8.43;4.93;;;;;;;19.41;32.15;101821.38;5093328;28;20032;-84
2022/04/11 09:29:15;;;;;;;10.00;4.75;;;;;;;19.70;30.24;101828.00;5093162;28;20120;-80
2022/04/11 09:31:41;;;;;;;12.50;4.10;;;;;;;19.20;29.22;101813.84;5093226;28;20399;-81
2022/04/11 09:34:20;;;;;;;9.23;4.05;;;;;;;19.08;29.72;101825.97;5093139;28;20032;-79
2022/04/11 09:36:50;;;;;;;8.55;4.22;;;;;;;19.74;30.15;101822.06;5092720;28;20087;-82
2022/04/11 09:39:19;;;;;;;7.80;4.07;;;;;;;20.28;30.21;101823.16;5092907;28;20066;-82
2022/04/11 09:41:46;;;;;;;8.27;3.33;;;;;;;19.54;27.00;101823.50;5074664;28;20054;-81
2022/04/11 09:44:23;;;;;;;10.75;3.92;;;;;;;19.65;29.52;101825.81;5074101;28;20043;-82
2022/04/11 09:46:57;;;;;;;8.15;3.25;;;;;;;19.44;27.76;101818.31;5074943;28;20096;-81
2022/04/11 09:49:24;;;;;;;5.13;2.97;;;;;;;20.02;29.64;101820.75;5075259;28;20080;-82
2022/04/11 09:52:07;;;;;;;7.30;3.40;;;;;;;19.98;28.66;101811.34;5041795;28;20413;-83
2022/04/11 09:54:35;;;;;;;6.57;3.25;;;;;;;19.99;29.38;101807.63;5093879;28;20032;-81
2022/04/11 09:57:02;;;;;;;10.18;3.00;;;;;;;20.55;27.64;101810.09;5092468;28;20447;-81
2022/04/11 09:59:28;;;;;;;5.90;3.20;;;;;;;20.11;26.97;101808.06;5092457;28;20039;-81
2022/04/11 10:01:54;;;;;;;6.10;3.20;;;;;;;20.06;28.18;101804.06;5092249;28;20062;-81
2022/04/11 10:04:21;;;;;;;9.88;3.60;;;;;;;19.64;27.60;101805.22;5092481;28;20043;-82
2022/04/11 10:06:48;;;;;;;12.65;3.53;;;;;;;19.54;27.70;101799.19;5074136;28;20389;-83
2022/04/11 10:09:14;;;;;;;7.03;3.30;;;;;;;19.65;28.35;101806.09;5073684;28;20040;-82
2022/04/11 10:11:44;;;;;;;7.63;3.35;;;;;;;20.20;26.28;101813.25;5074653;28;20054;-83
2022/04/11 10:14:11;;;;;;;9.10;4.03;;;;;;;19.40;27.47;101802.66;5093010;28;20089;-82
2022/04/11 10:16:45;;;;;;;9.05;3.72;;;;;;;19.00;28.97;101808.81;5092366;28;20032;-83
2022/04/11 10:19:11;;;;;;;8.88;3.80;;;;;;;18.64;28.86;101800.22;5093038;28;20044;-82
2022/04/11 10:21:42;;;;;;;12.38;4.03;;;;;;;18.14;27.24;101791.28;5074611;28;20032;-82
2022/04/11 10:24:33;;;;;;;6.32;3.75;;;;;;;18.90;28.39;101792.00;5092621;28;20081;-82
2022/04/11 10:27:16;;;;;;;7.78;3.67;;;;;;;19.51;27.86;101792.31;5073786;28;20024;-82
2022/04/11 10:29:41;;;;;;;8.13;4.00;;;;;;;19.94;27.88;101785.72;5092189;28;20032;-81
2022/04/11 10:32:13;;;;;;;8.95;4.70;;;;;;;19.16;27.24;101780.97;5091916;28;20039;-82
2022/04/11 10:34:50;;;;;;;5.40;4.32;;;;;;;19.57;28.50;101766.47;5074450;28;20093;-83
2022/04/11 10:37:17;;;;;;;7.05;4.47;;;;;;;19.42;27.46;101769.06;5092295;28;20036;-83
2022/04/11 10:39:48;;;;;;;6.55;4.80;;;;;;;19.16;27.57;101770.16;5091777;28;20048;-83
2022/04/11 10:42:25;;;;;;;11.10;5.18;;;;;;;19.53;27.86;101771.38;5057228;28;20081;-83
2022/04/11 10:44:56;;;;;;;6.75;4.85;;;;;;;20.15;27.43;101774.25;5092941;28;20068;-83
2022/04/11 10:47:32;;;;;;;;;;;;;;;19.96;27.87;101764.75;5074465;28;20054;-82
2022/04/11 10:49:57;;;;;;;7.20;4.75;;;;;;;20.11;28.28;101754.88;5073423;28;19908;-83
2022/04/11 10:52:36;;;;;;;9.00;4.65;;;;;;;18.78;29.28;101755.56;5091342;28;20089;-84
2022/04/11 10:55:09;;;;;;;6.45;4.22;;;;;;;19.67;27.78;101750.88;5091431;28;20032;-83
2022/04/11 10:57:48;;;;;;;7.40;4.25;;;;;;;20.07;26.88;101743.59;5072907;28;20028;-82
2022/04/11 11:00:15;;;;;;;8.07;4.15;;;;;;;19.81;26.41;101740.38;5073319;28;20123;-82
2022/04/11 11:02:52;;;;;;;7.47;4.47;;;;;;;19.05;26.47;101748.97;5091431;28;20077;-83
2022/04/11 11:05:35;;;;;;;6.50;4.32;;;;;;;19.10;27.69;101741.19;5091727;28;20077;-84
2022/04/11 11:08:09;;;;;;;6.97;4.15;;;;;;;19.16;27.06;101732.41;5091680;28;20103;-84
2022/04/11 11:11:01;;;;;;;6.38;4.35;;;;;;;20.13;27.25;101723.13;5091692;28;20024;-83
2022/04/11 11:13:37;;;;;;;7.95;4.88;;;;;;;19.40;27.84;101716.31;5092248;28;20095;-83
2022/04/11 11:16:10;;;;;;;10.25;4.43;;;;;;;18.76;27.26;101709.91;5072941;28;20028;-83
2022/04/11 11:18:51;;;;;;;6.68;4.55;;;;;;;19.32;27.64;101703.69;5091507;28;20020;-84
2022/04/11 11:21:32;;;;;;;;;;;;;;;19.49;26.56;101701.75;5091430;28;20020;-81
2022/04/11 11:24:08;;;;;;;9.98;4.85;;;;;;;19.73;29.20;101693.50;5091040;28;19908;-81